sensor_id;sensor_type;location;lat;lon;timestamp;pressure;altitude;pressure_sealevel;temperature;humidity
46174;BME280;31897;52.420;13.498;2023-01-10T00:02:52;100400;;;5.1344;36.07937
46174;BME280;31897;52.420;13.498;2023-01-10T00:05:53;100400;;;5.1512;35.95135
46174;BME280;31897;52.420;13.498;2023-01-10T00:08:53;100400;;;5.13246;35.9399
46174;BME280;31897;52.420;13.498;2023-01-10T00:11:54;100400;;;5.20256;35.97995
46174;BME280;31897;52.420;13.498;2023-01-10T00:14:55;100400;;;5.23777;35.89241
46174;BME280;31897;52.420;13.498;2023-01-10T00:17:56;100400;;;5.24358;35.89235
46174;BME280;31897;52.420;13.498;2023-01-10T00:20:56;100400;;;5.28202;35.94431
46174;BME280;31897;52.420;13.498;2023-01-10T00:23:57;100400;;;5.31917;35.88582
46174;BME280;31897;52.420;13.498;2023-01-10T00:26:58;100400;;;5.30496;35.9441
46174;BME280;31897;52.420;13.498;2023-01-10T00:29:59;100400;;;5.30496;35.93828
46174;BME280;31897;52.420;13.498;2023-01-10T00:33:00;100400;;;5.26006;35.93289
46174;BME280;31897;52.420;13.498;2023-01-10T00:36:01;100400;;;5.15734;36.02104
46174;BME280;31897;52.420;13.498;2023-01-10T00:39:02;100400;;;5.04525;36.14409
46174;BME280;31897;52.420;13.498;2023-01-10T00:42:03;100400;;;5.01004;36.30127
46174;BME280;31897;52.420;13.498;2023-01-10T00:45:04;100400;;;4.95803;36.39466
46174;BME280;31897;52.420;13.498;2023-01-10T00:48:05;100400;;;4.98226;36.37122
46174;BME280;31897;52.420;13.498;2023-01-10T00:51:06;100400;;;4.95125;36.45861
46174;BME280;31897;52.420;13.498;2023-01-10T00:54:07;100400;;;4.98936;36.53962
46174;BME280;31897;52.420;13.498;2023-01-10T00:57:08;100400;;;4.95222;36.51088
46174;BME280;31897;52.420;13.498;2023-01-10T01:00:09;100400;;;4.99033;36.528
46174;BME280;31897;52.420;13.498;2023-01-10T01:03:10;100400;;;4.99324;36.49893
46174;BME280;31897;52.420;13.498;2023-01-10T01:06:11;100400;;;4.94317;36.55161
46174;BME280;31897;52.420;13.498;2023-01-10T01:09:12;100400;;;4.98064;36.51646
46174;BME280;31897;52.420;13.498;2023-01-10T01:12:13;100400;;;4.93994;36.54002
46174;BME280;31897;52.420;13.498;2023-01-10T01:15:13;100400;;;4.91248;36.65639
46174;BME280;31897;52.420;13.498;2023-01-10T01:18:16;100500;;;4.89859;36.73781
46174;BME280;31897;52.420;13.498;2023-01-10T01:21:17;100500;;;4.97354;36.7721
46174;BME280;31897;52.420;13.498;2023-01-10T01:24:18;100500;;;4.99679;36.64994
46174;BME280;31897;52.420;13.498;2023-01-10T01:27:19;100500;;;4.99518;36.64995
46174;BME280;31897;52.420;13.498;2023-01-10T01:30:20;100500;;;5.05203;36.62627
46174;BME280;31897;52.420;13.498;2023-01-10T01:33:21;100500;;;5.09273;36.68987
46174;BME280;31897;52.420;13.498;2023-01-10T01:36:21;100500;;;5.12406;36.56179
46174;BME280;31897;52.420;13.498;2023-01-10T01:39:22;100500;;;5.13989;36.56748
46174;BME280;31897;52.420;13.498;2023-01-10T01:42:24;100500;;;5.18544;36.54968
46174;BME280;31897;52.420;13.498;2023-01-10T01:45:34;100500;;;5.20611;36.36353
46174;BME280;31897;52.420;13.498;2023-01-10T01:48:35;100500;;;5.15669;36.45112
46174;BME280;31897;52.420;13.498;2023-01-10T01:51:38;100500;;;5.13149;36.492
46174;BME280;31897;52.420;13.498;2023-01-10T01:54:39;100500;;;5.12826;36.52108
46174;BME280;31897;52.420;13.498;2023-01-10T01:57:39;100500;;;5.10081;36.51549
46174;BME280;31897;52.420;13.498;2023-01-10T02:00:40;100500;;;5.053;36.52169
46174;BME280;31897;52.420;13.498;2023-01-10T02:03:41;100500;;;5.12826;36.56757
46174;BME280;31897;52.420;13.498;2023-01-10T02:06:50;100500;;;5.1302;36.49201
46174;BME280;31897;52.420;13.498;2023-01-10T02:09:53;100500;;;5.00971;36.51623
46174;BME280;31897;52.420;13.498;2023-01-10T02:12:56;100600;;;5.04008;36.60313
46174;BME280;31897;52.420;13.498;2023-01-10T02:15:59;100600;;;5.05655;36.52747
46174;BME280;31897;52.420;13.498;2023-01-10T02:19:00;100600;;;5.08498;36.50981
46174;BME280;31897;52.420;13.498;2023-01-10T02:22:09;100600;;;5.0207;36.5568
46174;BME280;31897;52.420;13.498;2023-01-10T02:25:25;100600;;;5.04557;36.48689
46174;BME280;31897;52.420;13.498;2023-01-10T02:28:34;100600;;;5.0656;36.46349
46174;BME280;31897;52.420;13.498;2023-01-10T02:31:59;100600;;;5.03685;36.47534
46174;BME280;31897;52.420;13.498;2023-01-10T02:35:10;100600;;;5.07755;36.50406
46174;BME280;31897;52.420;13.498;2023-01-10T02:38:16;100600;;;5.10016;36.56779
46174;BME280;31897;52.420;13.498;2023-01-10T02:41:25;100600;;;5.1428;36.46285
46174;BME280;31897;52.420;13.498;2023-01-10T02:44:28;100600;;;5.18285;36.47415
46174;BME280;31897;52.420;13.498;2023-01-10T02:47:35;100600;;;5.14668;36.3989
46174;BME280;31897;52.420;13.498;2023-01-10T02:50:42;100600;;;5.12019;36.50953
46174;BME280;31897;52.420;13.498;2023-01-10T02:53:44;100600;;;5.12083;36.40493
46174;BME280;31897;52.420;13.498;2023-01-10T02:56:55;100600;;;5.04912;36.44619
46174;BME280;31897;52.420;13.498;2023-01-10T03:00:03;100600;;;5.01004;36.53365
46174;BME280;31897;52.420;13.498;2023-01-10T03:03:08;100600;;;4.98743;36.60354
46174;BME280;31897;52.420;13.498;2023-01-10T03:06:16;100600;;;4.9787;36.60942
46174;BME280;31897;52.420;13.498;2023-01-10T03:09:19;100600;;;4.97838;36.61523
46174;BME280;31897;52.420;13.498;2023-01-10T03:12:23;100600;;;5.00713;36.67309
46174;BME280;31897;52.420;13.498;2023-01-10T03:15:28;100600;;;5.01101;36.71954
46174;BME280;31897;52.420;13.498;2023-01-10T03:18:32;100600;;;5.02683;36.71942
46174;BME280;31897;52.420;13.498;2023-01-10T03:21:33;100600;;;5.02522;36.77752
46174;BME280;31897;52.420;13.498;2023-01-10T03:24:37;100700;;;5.05784;36.76566
46174;BME280;31897;52.420;13.498;2023-01-10T03:27:42;100700;;;5.10113;36.81182
46174;BME280;31897;52.420;13.498;2023-01-10T03:30:47;100700;;;5.09144;36.76541
46174;BME280;31897;52.420;13.498;2023-01-10T03:33:50;100700;;;5.02005;36.94021
46174;BME280;31897;52.420;13.498;2023-01-10T03:36:51;100700;;;4.94543;37.02204
46174;BME280;31897;52.420;13.498;2023-01-10T03:39:56;100700;;;4.91475;37.17904
46174;BME280;31897;52.420;13.498;2023-01-10T03:42:59;100700;;;4.9099;37.24875
46174;BME280;31897;52.420;13.498;2023-01-10T03:46:03;100700;;;4.89181;37.40564
46174;BME280;31897;52.420;13.498;2023-01-10T03:49:05;100700;;;4.95254;37.45754
46174;BME280;31897;52.420;13.498;2023-01-10T03:52:08;100700;;;4.96675;37.42842
46174;BME280;31897;52.420;13.498;2023-01-10T03:55:11;100700;;;4.96385;37.59104
46174;BME280;31897;52.420;13.498;2023-01-10T03:58:12;100700;;;4.92831;37.73059
46174;BME280;31897;52.420;13.498;2023-01-10T04:01:13;100700;;;4.88923;37.72499
46174;BME280;31897;52.420;13.498;2023-01-10T04:04:14;100700;;;4.85854;37.8993
46174;BME280;31897;52.420;13.498;2023-01-10T04:07:14;100700;;;4.88535;37.95722
46174;BME280;31897;52.420;13.498;2023-01-10T04:10:15;100700;;;4.80137;38.17236
46174;BME280;31897;52.420;13.498;2023-01-10T04:13:16;100700;;;4.77488;38.33496
46174;BME280;31897;52.420;13.498;2023-01-10T04:16:17;100800;;;4.79846;38.42192
46174;BME280;31897;52.420;13.498;2023-01-10T04:19:18;100800;;;4.81849;38.52051
46174;BME280;31897;52.420;13.498;2023-01-10T04:22:18;100800;;;4.91152;38.64209
46174;BME280;31897;52.420;13.498;2023-01-10T04:25:19;100800;;;4.92282;38.42728
46174;BME280;31897;52.420;13.498;2023-01-10T04:28:20;100800;;;4.89924;38.4738
46174;BME280;31897;52.420;13.498;2023-01-10T04:31:21;100800;;;4.92637;38.54917
46174;BME280;31897;52.420;13.498;2023-01-10T04:34:21;100800;;;4.9309;38.58979
46174;BME280;31897;52.420;13.498;2023-01-10T04:37:23;100800;;;4.96094;38.54905
46174;BME280;31897;52.420;13.498;2023-01-10T04:40:24;100800;;;4.93057;38.45628
46174;BME280;31897;52.420;13.498;2023-01-10T04:43:25;100800;;;4.88535;38.61896
46174;BME280;31897;52.420;13.498;2023-01-10T04:46:26;100800;;;4.83076;38.53208
46174;BME280;31897;52.420;13.498;2023-01-10T04:49:26;100800;;;4.78425;38.61347
46174;BME280;31897;52.420;13.498;2023-01-10T04:52:27;100800;;;4.76066;38.82243
46174;BME280;31897;52.420;13.498;2023-01-10T04:55:28;100800;;;4.78974;38.78173
46174;BME280;31897;52.420;13.498;2023-01-10T04:58:29;100800;;;4.82107;38.71201
46174;BME280;31897;52.420;13.498;2023-01-10T05:01:31;100800;;;4.85046;38.64809
46174;BME280;31897;52.420;13.498;2023-01-10T05:04:32;100900;;;4.844;38.61328
46174;BME280;31897;52.420;13.498;2023-01-10T05:07:33;100900;;;4.87986;38.57254
46174;BME280;31897;52.420;13.498;2023-01-10T05:10:33;100900;;;4.87501;38.52032
46174;BME280;31897;52.420;13.498;2023-01-10T05:13:34;100900;;;4.81816;38.56694
46174;BME280;31897;52.420;13.498;2023-01-10T05:16:35;100900;;;4.81881;38.59595
46174;BME280;31897;52.420;13.498;2023-01-10T05:19:36;100900;;;4.83334;38.60751
46174;BME280;31897;52.420;13.498;2023-01-10T05:22:37;100900;;;4.84756;38.68872
46174;BME280;31897;52.420;13.498;2023-01-10T05:25:38;100900;;;4.9422;38.61297
46174;BME280;31897;52.420;13.498;2023-01-10T05:28:39;100900;;;5.03491;38.47913
46174;BME280;31897;52.420;13.498;2023-01-10T05:31:40;100900;;;5.03556;38.30493
46174;BME280;31897;52.420;13.498;2023-01-10T05:34:41;100900;;;5.0446;38.43264
46174;BME280;31897;52.420;13.498;2023-01-10T05:37:42;100900;;;5.0853;38.42669
46174;BME280;31897;52.420;13.498;2023-01-10T05:40:42;100900;;;5.06204;38.21191
46174;BME280;31897;52.420;13.498;2023-01-10T05:43:43;100900;;;5.05752;38.35711
46174;BME280;31897;52.420;13.498;2023-01-10T05:46:45;100900;;;5.08756;38.40345
46174;BME280;31897;52.420;13.498;2023-01-10T05:49:46;100900;;;5.20837;38.17064
46174;BME280;31897;52.420;13.498;2023-01-10T05:52:47;100900;;;5.22711;38.14151
46174;BME280;31897;52.420;13.498;2023-01-10T05:55:51;101000;;;5.24649;38.08332
46174;BME280;31897;52.420;13.498;2023-01-10T05:58:52;101000;;;5.24649;38.05428
46174;BME280;31897;52.420;13.498;2023-01-10T06:01:53;101000;;;5.20159;38.10096
46174;BME280;31897;52.420;13.498;2023-01-10T06:04:54;101000;;;5.15055;38.02567
46174;BME280;31897;52.420;13.498;2023-01-10T06:07:54;101000;;;5.08336;38.13633
46174;BME280;31897;52.420;13.498;2023-01-10T06:10:55;101000;;;5.00745;38.22956
46174;BME280;31897;52.420;13.498;2023-01-10T06:13:56;101000;;;4.99033;38.28769
46174;BME280;31897;52.420;13.498;2023-01-10T06:16:57;101000;;;5.0685;38.33964
46174;BME280;31897;52.420;13.498;2023-01-10T06:20:03;101000;;;5.09208;38.15371
46174;BME280;31897;52.420;13.498;2023-01-10T06:23:03;101000;;;5.12406;38.16519
46174;BME280;31897;52.420;13.498;2023-01-10T06:26:04;101000;;;5.13569;38.14772
46174;BME280;31897;52.420;13.498;2023-01-10T06:29:05;101000;;;5.16153;38.13018
46174;BME280;31897;52.420;13.498;2023-01-10T06:32:06;101000;;;5.14732;37.95598
46174;BME280;31897;52.420;13.498;2023-01-10T06:35:07;101000;;;5.09112;38.08402
46174;BME280;31897;52.420;13.498;2023-01-10T06:38:08;101000;;;5.06463;38.2119
46174;BME280;31897;52.420;13.498;2023-01-10T06:41:09;101000;;;5.11147;38.16524
46174;BME280;31897;52.420;13.498;2023-01-10T06:44:09;101100;;;5.17058;38.08367
46174;BME280;31897;52.420;13.498;2023-01-10T06:47:10;101100;;;5.15895;37.96755
46174;BME280;31897;52.420;13.498;2023-01-10T06:50:11;101100;;;5.18253;38.01971
46174;BME280;31897;52.420;13.498;2023-01-10T06:53:12;101100;;;5.20385;37.95571
46174;BME280;31897;52.420;13.498;2023-01-10T06:56:13;101100;;;5.17478;37.86871
46174;BME280;31897;52.420;13.498;2023-01-10T06:59:13;101100;;;5.16573;37.97913
46174;BME280;31897;52.420;13.498;2023-01-10T07:02:14;101100;;;5.20288;37.90924
46174;BME280;31897;52.420;13.498;2023-01-10T07:05:15;101100;;;5.17769;37.84546
46174;BME280;31897;52.420;13.498;2023-01-10T07:08:16;101100;;;5.14118;37.90954
46174;BME280;31897;52.420;13.498;2023-01-10T07:11:17;101100;;;5.17446;37.9849
46174;BME280;31897;52.420;13.498;2023-01-10T07:14:18;101100;;;5.18964;37.9674
46174;BME280;31897;52.420;13.498;2023-01-10T07:17:18;101100;;;5.22937;37.88587
46174;BME280;31897;52.420;13.498;2023-01-10T07:20:19;101100;;;5.26232;37.75788
46174;BME280;31897;52.420;13.498;2023-01-10T07:23:20;101100;;;5.21968;37.68838
46174;BME280;31897;52.420;13.498;2023-01-10T07:26:21;101100;;;5.1554;37.64806
46174;BME280;31897;52.420;13.498;2023-01-10T07:29:22;101100;;;5.126;37.78183
46174;BME280;31897;52.420;13.498;2023-01-10T07:32:22;101100;;;5.10533;37.77032
46174;BME280;31897;52.420;13.498;2023-01-10T07:35:24;101100;;;5.07884;37.74141
46174;BME280;31897;52.420;13.498;2023-01-10T07:38:24;101200;;;5.08885;37.81687
46174;BME280;31897;52.420;13.498;2023-01-10T07:41:25;101200;;;5.08627;37.62521
46174;BME280;31897;52.420;13.498;2023-01-10T07:44:26;101200;;;5.05429;37.64862
46174;BME280;31897;52.420;13.498;2023-01-10T07:47:27;101200;;;5.08207;37.76463
46174;BME280;31897;52.420;13.498;2023-01-10T07:50:28;101200;;;5.18576;37.59561
46174;BME280;31897;52.420;13.498;2023-01-10T07:53:30;101200;;;5.10016;37.46829
46174;BME280;31897;52.420;13.498;2023-01-10T07:56:31;101200;;;5.06786;37.60208
46174;BME280;31897;52.420;13.498;2023-01-10T07:59:32;101200;;;5.13795;37.6714
46174;BME280;31897;52.420;13.498;2023-01-10T08:02:32;101200;;;5.14215;37.51452
46174;BME280;31897;52.420;13.498;2023-01-10T08:05:33;101200;;;5.22259;37.47338
46174;BME280;31897;52.420;13.498;2023-01-10T08:08:34;101200;;;5.28331;37.3626
46174;BME280;31897;52.420;13.498;2023-01-10T08:11:35;101200;;;5.30786;37.33339
46174;BME280;31897;52.420;13.498;2023-01-10T08:14:36;101200;;;5.33532;37.19954
46174;BME280;31897;52.420;13.498;2023-01-10T08:17:37;101200;;;5.36181;37.17611
46174;BME280;31897;52.420;13.498;2023-01-10T08:20:38;101200;;;5.27362;37.19994
46174;BME280;31897;52.420;13.498;2023-01-10T08:23:39;101200;;;5.24649;37.17106
46174;BME280;31897;52.420;13.498;2023-01-10T08:26:40;101200;;;5.19351;37.27019
46174;BME280;31897;52.420;13.498;2023-01-10T08:29:41;101200;;;5.22646;37.27579
46174;BME280;31897;52.420;13.498;2023-01-10T08:32:42;101200;;;5.22097;37.17123
46174;BME280;31897;52.420;13.498;2023-01-10T08:35:43;101200;;;5.21096;37.31076
46174;BME280;31897;52.420;13.498;2023-01-10T08:38:44;101300;;;5.22711;37.25836
46174;BME280;31897;52.420;13.498;2023-01-10T08:41:44;101300;;;5.29559;37.27535
46174;BME280;31897;52.420;13.498;2023-01-10T08:44:45;101300;;;5.34792;37.14133
46174;BME280;31897;52.420;13.498;2023-01-10T08:47:46;101300;;;5.36342;36.96102
46174;BME280;31897;52.420;13.498;2023-01-10T08:50:47;101300;;;5.43094;36.93146
46174;BME280;31897;52.420;13.498;2023-01-10T08:53:48;101300;;;5.57048;36.83739
46174;BME280;31897;52.420;13.498;2023-01-10T08:56:48;101300;;;5.80015;36.62616
46174;BME280;31897;52.420;13.498;2023-01-10T08:59:49;101300;;;6.18423;36.15702
46174;BME280;31897;52.420;13.498;2023-01-10T09:02:50;101300;;;6.17454;35.85417
46174;BME280;31897;52.420;13.498;2023-01-10T09:05:51;101300;;;6.31376;35.75371
46174;BME280;31897;52.420;13.498;2023-01-10T09:08:52;101300;;;6.43942;35.69412
46174;BME280;31897;52.420;13.498;2023-01-10T09:11:53;101300;;;6.40389;35.80524
46174;BME280;31897;52.420;13.498;2023-01-10T09:14:53;101300;;;6.36642;35.32182
46174;BME280;31897;52.420;13.498;2023-01-10T09:17:54;101300;;;6.4097;35.43793
46174;BME280;31897;52.420;13.498;2023-01-10T09:20:55;101300;;;6.43587;35.34436
46174;BME280;31897;52.420;13.498;2023-01-10T09:23:56;101300;;;6.53019;35.20917
46174;BME280;31897;52.420;13.498;2023-01-10T09:26:57;101300;;;6.77052;34.6987
46174;BME280;31897;52.420;13.498;2023-01-10T09:29:58;101300;;;6.88035;34.60973
46174;BME280;31897;52.420;13.498;2023-01-10T09:32:59;101300;;;6.91524;34.58009
46174;BME280;31897;52.420;13.498;2023-01-10T09:36:00;101300;;;7.15396;34.49516
46174;BME280;31897;52.420;13.498;2023-01-10T09:39:00;101300;;;7.23116;34.07345
46174;BME280;31897;52.420;13.498;2023-01-10T09:42:05;101300;;;7.24085;33.99151
46174;BME280;31897;52.420;13.498;2023-01-10T09:45:11;101300;;;7.1588;34.12707
46174;BME280;31897;52.420;13.498;2023-01-10T09:48:15;101300;;;6.9175;34.25312
46174;BME280;31897;52.420;13.498;2023-01-10T09:51:24;101300;;;6.92978;34.34637
46174;BME280;31897;52.420;13.498;2023-01-10T09:54:28;101300;;;6.86355;34.42316
46174;BME280;31897;52.420;13.498;2023-01-10T09:57:31;101300;;;6.59932;34.71256
46174;BME280;31897;52.420;13.498;2023-01-10T10:00:35;101300;;;6.34929;35.1005
46174;BME280;31897;52.420;13.498;2023-01-10T10:03:40;101300;;;6.28598;35.42764
46174;BME280;31897;52.420;13.498;2023-01-10T10:06:47;101300;;;6.31408;35.56138
46174;BME280;31897;52.420;13.498;2023-01-10T10:09:47;101300;;;6.26983;35.63178
46174;BME280;31897;52.420;13.498;2023-01-10T10:12:50;101300;;;6.16743;35.91833
46174;BME280;31897;52.420;13.498;2023-01-10T10:15:54;101300;;;6.12318;35.977
46174;BME280;31897;52.420;13.498;2023-01-10T10:18:59;101300;;;6.22235;35.95275
46174;BME280;31897;52.420;13.498;2023-01-10T10:22:03;101400;;;6.28534;35.6491
46174;BME280;31897;52.420;13.498;2023-01-10T10:25:12;101400;;;6.38095;35.71804
46174;BME280;31897;52.420;13.498;2023-01-10T10:28:27;101400;;;6.46074;35.56563
46174;BME280;31897;52.420;13.498;2023-01-10T10:31:39;101400;;;6.71044;35.30042
46174;BME280;31897;52.420;13.498;2023-01-10T10:34:44;101400;;;7.03444;35.01644
46174;BME280;31897;52.420;13.498;2023-01-10T10:37:47;101400;;;7.15848;34.83387
46174;BME280;31897;52.420;13.498;2023-01-10T10:40:49;101400;;;7.18949;34.74586
46174;BME280;31897;52.420;13.498;2023-01-10T10:43:51;101400;;;7.09775;34.86384
46174;BME280;31897;52.420;13.498;2023-01-10T10:46:53;101400;;;7.00472;34.95842
46174;BME280;31897;52.420;13.498;2023-01-10T10:49:58;101400;;;6.89973;34.98307
46174;BME280;31897;52.420;13.498;2023-01-10T10:53:01;101400;;;6.78732;34.99611
46174;BME280;31897;52.420;13.498;2023-01-10T10:56:03;101400;;;6.83061;34.89053
46174;BME280;31897;52.420;13.498;2023-01-10T10:59:05;101400;;;6.76923;34.76875
46174;BME280;31897;52.420;13.498;2023-01-10T11:02:11;101400;;;6.72659;34.62341
46174;BME280;31897;52.420;13.498;2023-01-10T11:05:20;101400;;;6.81381;34.49971
46174;BME280;31897;52.420;13.498;2023-01-10T11:08:21;101400;;;6.69913;34.47789
46174;BME280;31897;52.420;13.498;2023-01-10T11:11:24;101400;;;6.79669;34.50577
46174;BME280;31897;52.420;13.498;2023-01-10T11:14:42;101400;;;6.92622;34.22964
46174;BME280;31897;52.420;13.498;2023-01-10T11:17:43;101400;;;7.08224;34.04639
46174;BME280;31897;52.420;13.498;2023-01-10T11:20:48;101400;;;7.12973;33.81788
46174;BME280;31897;52.420;13.498;2023-01-10T11:23:49;101400;;;7.5403;33.36141
46174;BME280;31897;52.420;13.498;2023-01-10T11:26:51;101400;;;8.40409;32.63819
46174;BME280;31897;52.420;13.498;2023-01-10T11:29:54;101400;;;9.99278;31.01447
46174;BME280;31897;52.420;13.498;2023-01-10T11:32:56;101400;;;11.0698;29.98123
46174;BME280;31897;52.420;13.498;2023-01-10T11:35:58;101400;;;10.90376;29.9618
46174;BME280;31897;52.420;13.498;2023-01-10T11:39:00;101400;;;11.13376;29.34218
46174;BME280;31897;52.420;13.498;2023-01-10T11:42:23;101400;;;11.16639;28.89265
46174;BME280;31897;52.420;13.498;2023-01-10T11:45:27;101400;;;11.28236;28.352
46174;BME280;31897;52.420;13.498;2023-01-10T11:48:33;101400;;;11.12536;28.35062
46174;BME280;31897;52.420;13.498;2023-01-10T11:51:44;101400;;;11.98369;27.50927
46174;BME280;31897;52.420;13.498;2023-01-10T11:54:45;101400;;;11.33082;27.93708
46174;BME280;31897;52.420;13.498;2023-01-10T11:57:52;101400;;;10.66115;28.16341
46174;BME280;31897;52.420;13.498;2023-01-10T12:00:54;101400;;;10.03672;28.25805
46174;BME280;31897;52.420;13.498;2023-01-10T12:03:55;101400;;;9.55571;28.63066
46174;BME280;31897;52.420;13.498;2023-01-10T12:07:00;101400;;;9.19682;28.98147
46174;BME280;31897;52.420;13.498;2023-01-10T12:10:02;101400;;;9.00558;29.36843
46174;BME280;31897;52.420;13.498;2023-01-10T12:13:08;101400;;;9.03498;29.46167
46174;BME280;31897;52.420;13.498;2023-01-10T12:16:15;101400;;;9.13867;29.45902
46174;BME280;31897;52.420;13.498;2023-01-10T12:19:16;101400;;;9.17162;29.51106
46174;BME280;31897;52.420;13.498;2023-01-10T12:22:17;101400;;;9.35575;29.39466
46174;BME280;31897;52.420;13.498;2023-01-10T12:25:21;101400;;;9.60094;29.17655
46174;BME280;31897;52.420;13.498;2023-01-10T12:28:25;101400;;;11.45035;27.22432
46174;BME280;31897;52.420;13.498;2023-01-10T12:31:27;101400;;;13.73656;25.30315
46174;BME280;31897;52.420;13.498;2023-01-10T12:34:31;101400;;;16.96133;22.20015
46174;BME280;31897;52.420;13.498;2023-01-10T12:37:36;101400;;;19.06288;20.51582
46174;BME280;31897;52.420;13.498;2023-01-10T12:40:41;101400;;;20.88954;18.91343
46174;BME280;31897;52.420;13.498;2023-01-10T12:43:43;101400;;;21.00326;18.90739
46174;BME280;31897;52.420;13.498;2023-01-10T12:46:45;101400;;;20.56453;18.75607
46174;BME280;31897;52.420;13.498;2023-01-10T12:49:48;101400;;;17.26501;20.68715
46174;BME280;31897;52.420;13.498;2023-01-10T12:52:52;101400;;;15.60738;21.2204
46174;BME280;31897;52.420;13.498;2023-01-10T12:55:55;101400;;;18.54047;18.78413
46174;BME280;31897;52.420;13.498;2023-01-10T12:58:56;101400;;;18.75725;18.76066
46174;BME280;31897;52.420;13.498;2023-01-10T13:01:59;101400;;;15.83869;20.51601
46174;BME280;31897;52.420;13.498;2023-01-10T13:05:00;101400;;;13.90099;21.79886
46174;BME280;31897;52.420;13.498;2023-01-10T13:08:03;101400;;;12.56033;22.81345
46174;BME280;31897;52.420;13.498;2023-01-10T13:11:06;101400;;;11.63545;23.63333
46174;BME280;31897;52.420;13.498;2023-01-10T13:14:10;101400;;;10.9955;24.32053
46174;BME280;31897;52.420;13.498;2023-01-10T13:17:15;101400;;;10.56069;24.92727
46174;BME280;31897;52.420;13.498;2023-01-10T13:20:25;101400;;;10.15172;25.4905
46174;BME280;31897;52.420;13.498;2023-01-10T13:23:27;101500;;;9.82642;25.90837
46174;BME280;31897;52.420;13.498;2023-01-10T13:26:44;101500;;;9.59383;26.27542
46174;BME280;31897;52.420;13.498;2023-01-10T13:29:45;101500;;;9.29825;26.91461
46174;BME280;31897;52.420;13.498;2023-01-10T13:32:47;101500;;;9.01398;27.46434
46174;BME280;31897;52.420;13.498;2023-01-10T13:35:55;101500;;;8.89316;27.73826
46174;BME280;31897;52.420;13.498;2023-01-10T13:38:58;101500;;;8.73811;28.04236
46174;BME280;31897;52.420;13.498;2023-01-10T13:45:33;101500;;;8.6118;28.39238
46174;BME280;31897;52.420;13.498;2023-01-10T13:48:33;101500;;;8.43639;28.59678
46174;BME280;31897;52.420;13.498;2023-01-10T13:51:34;101500;;;8.25679;28.79524
46174;BME280;31897;52.420;13.498;2023-01-10T13:54:36;101500;;;8.05037;29.13493
46174;BME280;31897;52.420;13.498;2023-01-10T13:57:53;101500;;;7.86495;29.42685
46174;BME280;31897;52.420;13.498;2023-01-10T14:00:54;101500;;;7.78645;29.59285
46174;BME280;31897;52.420;13.498;2023-01-10T14:03:57;101500;;;7.73896;29.70531
46174;BME280;31897;52.420;13.498;2023-01-10T14:07:00;101500;;;7.71861;29.77024
46174;BME280;31897;52.420;13.498;2023-01-10T14:10:02;101500;;;7.71668;29.82299
46174;BME280;31897;52.420;13.498;2023-01-10T14:13:05;101500;;;7.71991;29.84049
46174;BME280;31897;52.420;13.498;2023-01-10T14:16:13;101500;;;7.79323;29.86214
46174;BME280;31897;52.420;13.498;2023-01-10T14:19:26;101500;;;7.85913;29.87812
46174;BME280;31897;52.420;13.498;2023-01-10T14:22:28;101500;;;7.90597;29.90042
46174;BME280;31897;52.420;13.498;2023-01-10T14:25:31;101500;;;7.85526;30.04224
46174;BME280;31897;52.420;13.498;2023-01-10T14:28:33;101500;;;7.74252;30.16791
46174;BME280;31897;52.420;13.498;2023-01-10T14:31:34;101500;;;7.60006;30.38201
46174;BME280;31897;52.420;13.498;2023-01-10T14:34:37;101500;;;7.38105;30.60351
46174;BME280;31897;52.420;13.498;2023-01-10T14:37:41;101500;;;7.19692;30.81231
46174;BME280;31897;52.420;13.498;2023-01-10T14:40:44;101500;;;7.0564;30.96152
46174;BME280;31897;52.420;13.498;2023-01-10T14:43:47;101500;;;7.03056;30.98546
46174;BME280;31897;52.420;13.498;2023-01-10T14:46:49;101500;;;6.97726;31.0918
46174;BME280;31897;52.420;13.498;2023-01-10T14:49:51;101500;;;6.87131;31.19337
46174;BME280;31897;52.420;13.498;2023-01-10T14:52:52;101500;;;6.87615;31.28676
46174;BME280;31897;52.420;13.498;2023-01-10T14:55:52;101500;;;6.88229;31.35675
46174;BME280;31897;52.420;13.498;2023-01-10T14:58:53;101500;;;6.87292;31.33357
46174;BME280;31897;52.420;13.498;2023-01-10T15:01:56;101500;;;6.83061;31.41623
46174;BME280;31897;52.420;13.498;2023-01-10T15:04:59;101500;;;6.80929;31.48092
46174;BME280;31897;52.420;13.498;2023-01-10T15:08:13;101500;;;6.76503;31.59863
46174;BME280;31897;52.420;13.498;2023-01-10T15:11:15;101500;;;6.63033;31.75312
46174;BME280;31897;52.420;13.498;2023-01-10T15:14:16;101500;;;6.43877;32.01364
46174;BME280;31897;52.420;13.498;2023-01-10T15:17:18;101500;;;6.27758;32.20334
46174;BME280;31897;52.420;13.498;2023-01-10T15:20:19;101500;;;6.16711;32.33367
46174;BME280;31897;52.420;13.498;2023-01-10T15:23:21;101500;;;6.18003;32.43258